Airfield :
LOGIN :

Register | Disclaimer

   EN    FR    IT 

 










Legend :    VFR   Marginal VFR   IFR   Intensive IFR   Very Intensive IFR
Visi :
Ceiling :
>= 8 km
>= 3000ft
5 to 8 km
1000 to 3000 ft
1500m to 5 km
500 to 1000 ft
800 to 1500m
200 to 500 ft
< 800m
< 200 ft
Symbols :   Thunderstorms  Fog  Heavy snow  Heavy precipitations  Wind > 20 kt
SIGMETs :     Misc.  Thunderstorms  Icing  Turbulence  Mountain Waves  Volcanic Ashes







- Airport Elevation : 288 ft
- IATA code : BZZ


EGVN - RAF Brize Norton

CURRENT METAR :
  • 152050Z 08005KT 5000 BR OVC003 11/11 Q1014 BECMG 3000 BKN002

EXPIRED METARs :
  • 151950Z 08007KT 9999 BKN005 11/11 Q1014 BECMG 5000 BR BKN003
  • 151850Z 08009KT 9999 BKN005 BKN015 11/11 Q1014 NOSIG
  • 151750Z 06008KT 4500 -DZ BKN005 OVC015 11/11 Q1014 YLO1 TEMPO 2000 BKN004 YLO2

TAF TAF EGVN
Valid from the 15 at 21:00 until the 16 at 21:00 UTC


151933Z 1521/1621 07008KT 5000 BR BKN005
BECMG 1521/1524 3000 BKN003
PROB40
TEMPO 1600/1610 0600 FG BKN001
BECMG 1609/1612 BKN008
BECMG 1612/1615 9999 NSW SCT015
PROB40 1615/1621 BKN030
No reported NOTAMs for that airfield.



MET'MAP, your aeronautical weather chart ! - Copyright ORBIFLY December 2007 - Disclaimer

ORBIFLY MET'MAP TEAM :

Programming & Development : Alexandra Zaïnal
Concept & Development : Baudouin d'Aumeries
Co-Development & Prog : Marc-Olivier Méhu
Technical & hardware support : Manuel Goepfert

Contact : metmap@orbifly.com




SOURCES & CREDITS :

   NOAA